sensor_id;sensor_type;location;lat;lon;timestamp;P1;durP1;ratioP1;P2;durP2;ratioP2
65599;SDS011;52272;-29.642;-50.764;2022-12-29T00:00:33;3.85;;;1.65;;
65599;SDS011;52272;-29.642;-50.764;2022-12-29T00:03:03;4.25;;;1.40;;
65599;SDS011;52272;-29.642;-50.764;2022-12-29T00:05:44;2.92;;;1.50;;
65599;SDS011;52272;-29.642;-50.764;2022-12-29T00:08:29;2.03;;;1.50;;
65599;SDS011;52272;-29.642;-50.764;2022-12-29T00:11:15;2.53;;;1.23;;
65599;SDS011;52272;-29.642;-50.764;2022-12-29T00:14:23;3.65;;;1.75;;
65599;SDS011;52272;-29.642;-50.764;2022-12-29T00:17:16;7.22;;;2.92;;
65599;SDS011;52272;-29.642;-50.764;2022-12-29T00:19:48;5.72;;;2.63;;
65599;SDS011;52272;-29.642;-50.764;2022-12-29T00:22:37;5.47;;;2.38;;
65599;SDS011;52272;-29.642;-50.764;2022-12-29T00:25:31;8.07;;;3.17;;
65599;SDS011;52272;-29.642;-50.764;2022-12-29T00:28:32;7.55;;;3.20;;
65599;SDS011;52272;-29.642;-50.764;2022-12-29T00:31:32;7.07;;;3.75;;
65599;SDS011;52272;-29.642;-50.764;2022-12-29T00:34:24;7.93;;;4.28;;
65599;SDS011;52272;-29.642;-50.764;2022-12-29T00:37:25;9.93;;;4.88;;
65599;SDS011;52272;-29.642;-50.764;2022-12-29T00:40:16;6.07;;;3.30;;
65599;SDS011;52272;-29.642;-50.764;2022-12-29T00:43:10;5.60;;;2.70;;
65599;SDS011;52272;-29.642;-50.764;2022-12-29T00:46:06;5.57;;;2.60;;
65599;SDS011;52272;-29.642;-50.764;2022-12-29T00:48:50;6.15;;;2.10;;
65599;SDS011;52272;-29.642;-50.764;2022-12-29T00:51:45;5.97;;;1.90;;
65599;SDS011;52272;-29.642;-50.764;2022-12-29T00:54:18;3.97;;;2.22;;
65599;SDS011;52272;-29.642;-50.764;2022-12-29T00:57:01;4.53;;;2.20;;
65599;SDS011;52272;-29.642;-50.764;2022-12-29T00:59:35;4.90;;;2.70;;
65599;SDS011;52272;-29.642;-50.764;2022-12-29T01:02:11;4.45;;;2.92;;
65599;SDS011;52272;-29.642;-50.764;2022-12-29T01:04:46;6.65;;;3.72;;
65599;SDS011;52272;-29.642;-50.764;2022-12-29T01:07:27;4.43;;;2.95;;
65599;SDS011;52272;-29.642;-50.764;2022-12-29T01:10:04;5.07;;;3.00;;
65599;SDS011;52272;-29.642;-50.764;2022-12-29T01:12:44;9.07;;;3.22;;
65599;SDS011;52272;-29.642;-50.764;2022-12-29T01:15:16;7.25;;;3.33;;
65599;SDS011;52272;-29.642;-50.764;2022-12-29T01:17:57;5.28;;;2.83;;
65599;SDS011;52272;-29.642;-50.764;2022-12-29T01:20:35;5.03;;;2.60;;
65599;SDS011;52272;-29.642;-50.764;2022-12-29T01:23:11;6.50;;;2.80;;
65599;SDS011;52272;-29.642;-50.764;2022-12-29T01:25:45;3.92;;;2.70;;
65599;SDS011;52272;-29.642;-50.764;2022-12-29T01:28:20;7.97;;;3.28;;
65599;SDS011;52272;-29.642;-50.764;2022-12-29T01:30:57;5.20;;;2.83;;
65599;SDS011;52272;-29.642;-50.764;2022-12-29T01:33:32;4.85;;;3.20;;
65599;SDS011;52272;-29.642;-50.764;2022-12-29T01:36:12;10.57;;;4.32;;
65599;SDS011;52272;-29.642;-50.764;2022-12-29T01:38:50;9.52;;;3.70;;
65599;SDS011;52272;-29.642;-50.764;2022-12-29T01:41:29;6.57;;;3.88;;
65599;SDS011;52272;-29.642;-50.764;2022-12-29T01:44:39;7.75;;;4.25;;
65599;SDS011;52272;-29.642;-50.764;2022-12-29T01:47:15;6.38;;;3.47;;
65599;SDS011;52272;-29.642;-50.764;2022-12-29T01:49:54;6.93;;;3.95;;
65599;SDS011;52272;-29.642;-50.764;2022-12-29T01:55:02;5.60;;;3.70;;
65599;SDS011;52272;-29.642;-50.764;2022-12-29T01:57:40;6.50;;;3.78;;
65599;SDS011;52272;-29.642;-50.764;2022-12-29T02:00:21;7.47;;;3.85;;
65599;SDS011;52272;-29.642;-50.764;2022-12-29T02:03:04;6.43;;;3.97;;
65599;SDS011;52272;-29.642;-50.764;2022-12-29T02:06:03;5.90;;;3.72;;
65599;SDS011;52272;-29.642;-50.764;2022-12-29T02:08:47;6.93;;;3.83;;
65599;SDS011;52272;-29.642;-50.764;2022-12-29T02:11:25;5.22;;;3.97;;
65599;SDS011;52272;-29.642;-50.764;2022-12-29T02:13:57;5.95;;;3.85;;
65599;SDS011;52272;-29.642;-50.764;2022-12-29T02:36:04;9.95;;;4.50;;
65599;SDS011;52272;-29.642;-50.764;2022-12-29T02:38:47;9.90;;;4.15;;
65599;SDS011;52272;-29.642;-50.764;2022-12-29T02:41:46;7.78;;;5.57;;
65599;SDS011;52272;-29.642;-50.764;2022-12-29T02:47:36;8.32;;;4.78;;
65599;SDS011;52272;-29.642;-50.764;2022-12-29T02:53:19;11.80;;;4.70;;
65599;SDS011;52272;-29.642;-50.764;2022-12-29T02:56:13;8.23;;;4.30;;
65599;SDS011;52272;-29.642;-50.764;2022-12-29T02:58:49;7.43;;;4.18;;
65599;SDS011;52272;-29.642;-50.764;2022-12-29T03:01:31;8.48;;;4.32;;
65599;SDS011;52272;-29.642;-50.764;2022-12-29T03:13:56;9.82;;;5.63;;
65599;SDS011;52272;-29.642;-50.764;2022-12-29T03:17:07;10.35;;;6.50;;
65599;SDS011;52272;-29.642;-50.764;2022-12-29T03:19:47;16.75;;;6.78;;
65599;SDS011;52272;-29.642;-50.764;2022-12-29T03:22:25;7.55;;;4.93;;
65599;SDS011;52272;-29.642;-50.764;2022-12-29T03:25:12;7.80;;;5.53;;
65599;SDS011;52272;-29.642;-50.764;2022-12-29T03:28:05;8.43;;;5.93;;
65599;SDS011;52272;-29.642;-50.764;2022-12-29T03:30:46;8.05;;;5.10;;
65599;SDS011;52272;-29.642;-50.764;2022-12-29T03:33:24;11.20;;;4.88;;
65599;SDS011;52272;-29.642;-50.764;2022-12-29T03:36:03;7.85;;;3.90;;
65599;SDS011;52272;-29.642;-50.764;2022-12-29T03:38:53;9.07;;;4.32;;
65599;SDS011;52272;-29.642;-50.764;2022-12-29T03:41:37;6.80;;;4.20;;
65599;SDS011;52272;-29.642;-50.764;2022-12-29T03:44:14;6.18;;;3.55;;
65599;SDS011;52272;-29.642;-50.764;2022-12-29T03:46:47;5.15;;;3.10;;
65599;SDS011;52272;-29.642;-50.764;2022-12-29T03:49:18;7.05;;;3.67;;
65599;SDS011;52272;-29.642;-50.764;2022-12-29T03:51:52;9.70;;;3.85;;
65599;SDS011;52272;-29.642;-50.764;2022-12-29T03:54:24;7.00;;;3.40;;
65599;SDS011;52272;-29.642;-50.764;2022-12-29T03:57:06;6.50;;;3.63;;
65599;SDS011;52272;-29.642;-50.764;2022-12-29T03:59:56;5.25;;;3.58;;
65599;SDS011;52272;-29.642;-50.764;2022-12-29T04:02:37;7.50;;;4.05;;
65599;SDS011;52272;-29.642;-50.764;2022-12-29T04:05:23;6.55;;;4.13;;
65599;SDS011;52272;-29.642;-50.764;2022-12-29T04:07:56;4.82;;;3.70;;
65599;SDS011;52272;-29.642;-50.764;2022-12-29T04:10:29;5.60;;;3.97;;
65599;SDS011;52272;-29.642;-50.764;2022-12-29T04:13:05;9.80;;;4.20;;
65599;SDS011;52272;-29.642;-50.764;2022-12-29T04:15:49;7.50;;;4.18;;
65599;SDS011;52272;-29.642;-50.764;2022-12-29T04:18:25;5.60;;;4.07;;
65599;SDS011;52272;-29.642;-50.764;2022-12-29T04:21:15;8.60;;;4.00;;
65599;SDS011;52272;-29.642;-50.764;2022-12-29T04:23:48;7.07;;;4.50;;
65599;SDS011;52272;-29.642;-50.764;2022-12-29T04:26:24;6.05;;;3.55;;
65599;SDS011;52272;-29.642;-50.764;2022-12-29T04:29:26;6.93;;;3.53;;
65599;SDS011;52272;-29.642;-50.764;2022-12-29T04:32:28;3.20;;;2.72;;
65599;SDS011;52272;-29.642;-50.764;2022-12-29T04:35:01;9.57;;;3.58;;
65599;SDS011;52272;-29.642;-50.764;2022-12-29T04:37:34;5.18;;;3.50;;
65599;SDS011;52272;-29.642;-50.764;2022-12-29T04:40:07;5.50;;;3.42;;
65599;SDS011;52272;-29.642;-50.764;2022-12-29T04:42:51;4.43;;;3.05;;
65599;SDS011;52272;-29.642;-50.764;2022-12-29T04:45:31;6.70;;;3.55;;
65599;SDS011;52272;-29.642;-50.764;2022-12-29T04:48:27;5.50;;;3.30;;
65599;SDS011;52272;-29.642;-50.764;2022-12-29T04:51:17;5.10;;;2.75;;
65599;SDS011;52272;-29.642;-50.764;2022-12-29T04:53:54;7.15;;;3.05;;
65599;SDS011;52272;-29.642;-50.764;2022-12-29T04:56:25;6.53;;;2.80;;
65599;SDS011;52272;-29.642;-50.764;2022-12-29T04:59:00;6.32;;;2.97;;
65599;SDS011;52272;-29.642;-50.764;2022-12-29T05:01:34;5.43;;;3.40;;
65599;SDS011;52272;-29.642;-50.764;2022-12-29T05:04:28;4.93;;;2.78;;
65599;SDS011;52272;-29.642;-50.764;2022-12-29T05:07:05;4.88;;;2.65;;
65599;SDS011;52272;-29.642;-50.764;2022-12-29T05:09:48;4.93;;;3.10;;
65599;SDS011;52272;-29.642;-50.764;2022-12-29T05:12:24;4.75;;;3.03;;
65599;SDS011;52272;-29.642;-50.764;2022-12-29T05:15:06;5.15;;;3.17;;
65599;SDS011;52272;-29.642;-50.764;2022-12-29T05:17:43;7.57;;;3.58;;
65599;SDS011;52272;-29.642;-50.764;2022-12-29T05:20:24;6.30;;;3.58;;
65599;SDS011;52272;-29.642;-50.764;2022-12-29T05:22:54;14.25;;;6.40;;
65599;SDS011;52272;-29.642;-50.764;2022-12-29T05:25:30;10.32;;;4.30;;
65599;SDS011;52272;-29.642;-50.764;2022-12-29T05:28:18;6.93;;;3.88;;
65599;SDS011;52272;-29.642;-50.764;2022-12-29T05:31:02;6.03;;;3.45;;
65599;SDS011;52272;-29.642;-50.764;2022-12-29T05:33:44;11.38;;;4.03;;
65599;SDS011;52272;-29.642;-50.764;2022-12-29T05:36:25;4.97;;;3.25;;
65599;SDS011;52272;-29.642;-50.764;2022-12-29T05:39:06;7.65;;;3.22;;
65599;SDS011;52272;-29.642;-50.764;2022-12-29T05:41:46;7.15;;;3.30;;
65599;SDS011;52272;-29.642;-50.764;2022-12-29T05:44:42;5.53;;;3.10;;
65599;SDS011;52272;-29.642;-50.764;2022-12-29T05:47:44;5.60;;;2.80;;
65599;SDS011;52272;-29.642;-50.764;2022-12-29T05:53:24;9.82;;;3.58;;
65599;SDS011;52272;-29.642;-50.764;2022-12-29T05:55:57;9.90;;;3.88;;
65599;SDS011;52272;-29.642;-50.764;2022-12-29T05:58:40;10.18;;;4.57;;
65599;SDS011;52272;-29.642;-50.764;2022-12-29T06:01:10;9.98;;;5.43;;
65599;SDS011;52272;-29.642;-50.764;2022-12-29T06:03:44;6.15;;;3.95;;
65599;SDS011;52272;-29.642;-50.764;2022-12-29T06:06:27;6.90;;;3.95;;
65599;SDS011;52272;-29.642;-50.764;2022-12-29T06:09:02;7.10;;;3.70;;
65599;SDS011;52272;-29.642;-50.764;2022-12-29T06:11:41;9.45;;;3.95;;
65599;SDS011;52272;-29.642;-50.764;2022-12-29T06:14:36;8.18;;;4.50;;
65599;SDS011;52272;-29.642;-50.764;2022-12-29T06:17:09;7.97;;;4.00;;
65599;SDS011;52272;-29.642;-50.764;2022-12-29T06:19:52;7.68;;;4.55;;
65599;SDS011;52272;-29.642;-50.764;2022-12-29T06:22:24;10.73;;;3.50;;
65599;SDS011;52272;-29.642;-50.764;2022-12-29T06:25:03;6.28;;;3.72;;
65599;SDS011;52272;-29.642;-50.764;2022-12-29T06:27:41;4.68;;;2.88;;
65599;SDS011;52272;-29.642;-50.764;2022-12-29T06:30:12;6.60;;;3.10;;
65599;SDS011;52272;-29.642;-50.764;2022-12-29T06:32:48;9.18;;;3.40;;
65599;SDS011;52272;-29.642;-50.764;2022-12-29T06:35:21;5.18;;;3.00;;
65599;SDS011;52272;-29.642;-50.764;2022-12-29T06:37:53;7.78;;;3.22;;
65599;SDS011;52272;-29.642;-50.764;2022-12-29T06:40:30;6.57;;;2.83;;
65599;SDS011;52272;-29.642;-50.764;2022-12-29T06:43:06;6.40;;;2.78;;
65599;SDS011;52272;-29.642;-50.764;2022-12-29T06:45:55;5.97;;;2.90;;
65599;SDS011;52272;-29.642;-50.764;2022-12-29T06:48:30;9.05;;;2.85;;
65599;SDS011;52272;-29.642;-50.764;2022-12-29T06:51:04;5.78;;;2.65;;
65599;SDS011;52272;-29.642;-50.764;2022-12-29T06:53:43;5.85;;;2.95;;
65599;SDS011;52272;-29.642;-50.764;2022-12-29T06:56:22;8.23;;;3.35;;
65599;SDS011;52272;-29.642;-50.764;2022-12-29T06:58:58;8.80;;;3.40;;
65599;SDS011;52272;-29.642;-50.764;2022-12-29T07:01:33;4.88;;;3.30;;
65599;SDS011;52272;-29.642;-50.764;2022-12-29T07:04:12;7.65;;;3.60;;
65599;SDS011;52272;-29.642;-50.764;2022-12-29T07:06:48;9.05;;;3.88;;
65599;SDS011;52272;-29.642;-50.764;2022-12-29T07:09:20;11.13;;;3.80;;
65599;SDS011;52272;-29.642;-50.764;2022-12-29T07:11:57;18.23;;;10.95;;
65599;SDS011;52272;-29.642;-50.764;2022-12-29T07:14:33;23.05;;;14.98;;
65599;SDS011;52272;-29.642;-50.764;2022-12-29T07:17:14;20.23;;;10.55;;
65599;SDS011;52272;-29.642;-50.764;2022-12-29T07:19:50;10.63;;;4.95;;
65599;SDS011;52272;-29.642;-50.764;2022-12-29T07:22:24;13.18;;;7.18;;
65599;SDS011;52272;-29.642;-50.764;2022-12-29T07:24:57;10.98;;;6.90;;
65599;SDS011;52272;-29.642;-50.764;2022-12-29T07:27:36;13.70;;;8.05;;
65599;SDS011;52272;-29.642;-50.764;2022-12-29T07:30:18;11.02;;;6.30;;
65599;SDS011;52272;-29.642;-50.764;2022-12-29T07:32:52;10.80;;;5.50;;
65599;SDS011;52272;-29.642;-50.764;2022-12-29T07:35:29;11.98;;;4.68;;
65599;SDS011;52272;-29.642;-50.764;2022-12-29T07:38:17;8.32;;;3.70;;
65599;SDS011;52272;-29.642;-50.764;2022-12-29T07:40:50;7.07;;;3.75;;
65599;SDS011;52272;-29.642;-50.764;2022-12-29T07:43:42;7.80;;;3.55;;
65599;SDS011;52272;-29.642;-50.764;2022-12-29T07:46:56;5.50;;;3.83;;
65599;SDS011;52272;-29.642;-50.764;2022-12-29T07:49:44;7.82;;;4.05;;
65599;SDS011;52272;-29.642;-50.764;2022-12-29T07:52:17;7.32;;;3.53;;
65599;SDS011;52272;-29.642;-50.764;2022-12-29T07:55:08;10.20;;;3.85;;
65599;SDS011;52272;-29.642;-50.764;2022-12-29T07:57:44;12.02;;;5.55;;
65599;SDS011;52272;-29.642;-50.764;2022-12-29T08:00:31;8.13;;;5.13;;
65599;SDS011;52272;-29.642;-50.764;2022-12-29T08:03:05;12.95;;;4.10;;
65599;SDS011;52272;-29.642;-50.764;2022-12-29T08:05:50;6.32;;;4.15;;
65599;SDS011;52272;-29.642;-50.764;2022-12-29T08:08:33;7.68;;;4.07;;
65599;SDS011;52272;-29.642;-50.764;2022-12-29T08:11:11;6.75;;;4.25;;
65599;SDS011;52272;-29.642;-50.764;2022-12-29T08:13:53;12.43;;;5.97;;
65599;SDS011;52272;-29.642;-50.764;2022-12-29T08:16:34;10.25;;;6.18;;
65599;SDS011;52272;-29.642;-50.764;2022-12-29T08:19:23;6.68;;;3.40;;
65599;SDS011;52272;-29.642;-50.764;2022-12-29T08:21:54;6.53;;;3.42;;
65599;SDS011;52272;-29.642;-50.764;2022-12-29T08:24:30;9.13;;;3.38;;
65599;SDS011;52272;-29.642;-50.764;2022-12-29T08:27:12;11.32;;;3.85;;
65599;SDS011;52272;-29.642;-50.764;2022-12-29T08:29:48;8.50;;;4.13;;
65599;SDS011;52272;-29.642;-50.764;2022-12-29T08:32:31;9.18;;;4.15;;
65599;SDS011;52272;-29.642;-50.764;2022-12-29T08:35:11;7.32;;;3.80;;
65599;SDS011;52272;-29.642;-50.764;2022-12-29T08:37:42;5.53;;;3.58;;
65599;SDS011;52272;-29.642;-50.764;2022-12-29T08:40:15;5.40;;;3.20;;
65599;SDS011;52272;-29.642;-50.764;2022-12-29T08:42:50;11.68;;;3.10;;
65599;SDS011;52272;-29.642;-50.764;2022-12-29T08:45:23;5.07;;;2.60;;
65599;SDS011;52272;-29.642;-50.764;2022-12-29T08:48:01;5.78;;;2.50;;
65599;SDS011;52272;-29.642;-50.764;2022-12-29T08:50:37;5.32;;;2.47;;
65599;SDS011;52272;-29.642;-50.764;2022-12-29T08:53:12;5.07;;;2.25;;
65599;SDS011;52272;-29.642;-50.764;2022-12-29T08:55:46;7.50;;;2.58;;
65599;SDS011;52272;-29.642;-50.764;2022-12-29T08:58:37;5.45;;;2.40;;
65599;SDS011;52272;-29.642;-50.764;2022-12-29T09:01:07;4.43;;;1.73;;
65599;SDS011;52272;-29.642;-50.764;2022-12-29T09:03:41;3.50;;;1.92;;
65599;SDS011;52272;-29.642;-50.764;2022-12-29T09:06:31;3.63;;;1.70;;
65599;SDS011;52272;-29.642;-50.764;2022-12-29T09:09:18;5.65;;;1.80;;
65599;SDS011;52272;-29.642;-50.764;2022-12-29T09:12:03;2.67;;;1.67;;
65599;SDS011;52272;-29.642;-50.764;2022-12-29T09:14:46;3.63;;;1.70;;
65599;SDS011;52272;-29.642;-50.764;2022-12-29T09:17:23;4.80;;;1.48;;
65599;SDS011;52272;-29.642;-50.764;2022-12-29T09:20:23;1.42;;;1.20;;
65599;SDS011;52272;-29.642;-50.764;2022-12-29T09:22:55;2.35;;;1.30;;
65599;SDS011;52272;-29.642;-50.764;2022-12-29T09:25:34;4.72;;;1.38;;
65599;SDS011;52272;-29.642;-50.764;2022-12-29T09:28:07;1.23;;;1.10;;
65599;SDS011;52272;-29.642;-50.764;2022-12-29T09:30:43;1.40;;;1.30;;
65599;SDS011;52272;-29.642;-50.764;2022-12-29T09:33:19;5.80;;;1.95;;
65599;SDS011;52272;-29.642;-50.764;2022-12-29T09:36:03;5.13;;;1.77;;
65599;SDS011;52272;-29.642;-50.764;2022-12-29T09:38:36;3.00;;;1.30;;
65599;SDS011;52272;-29.642;-50.764;2022-12-29T09:41:26;3.13;;;1.40;;
65599;SDS011;52272;-29.642;-50.764;2022-12-29T09:47:13;4.28;;;1.30;;
65599;SDS011;52272;-29.642;-50.764;2022-12-29T09:49:52;4.72;;;1.38;;
65599;SDS011;52272;-29.642;-50.764;2022-12-29T09:52:26;4.63;;;1.48;;
65599;SDS011;52272;-29.642;-50.764;2022-12-29T09:55:26;3.67;;;1.55;;
65599;SDS011;52272;-29.642;-50.764;2022-12-29T09:58:10;2.65;;;1.40;;
65599;SDS011;52272;-29.642;-50.764;2022-12-29T10:03:24;3.95;;;1.48;;
65599;SDS011;52272;-29.642;-50.764;2022-12-29T10:09:33;5.18;;;1.38;;
65599;SDS011;52272;-29.642;-50.764;2022-12-29T10:23:59;6.80;;;2.00;;
65599;SDS011;52272;-29.642;-50.764;2022-12-29T10:26:39;3.60;;;1.65;;
65599;SDS011;52272;-29.642;-50.764;2022-12-29T10:29:37;4.00;;;1.70;;
65599;SDS011;52272;-29.642;-50.764;2022-12-29T10:35:12;4.18;;;1.58;;
65599;SDS011;52272;-29.642;-50.764;2022-12-29T10:41:05;5.03;;;1.38;;
65599;SDS011;52272;-29.642;-50.764;2022-12-29T10:43:50;5.70;;;1.80;;
65599;SDS011;52272;-29.642;-50.764;2022-12-29T10:46:27;7.00;;;2.20;;
65599;SDS011;52272;-29.642;-50.764;2022-12-29T10:49:24;3.78;;;1.77;;
65599;SDS011;52272;-29.642;-50.764;2022-12-29T10:52:12;4.22;;;1.83;;
65599;SDS011;52272;-29.642;-50.764;2022-12-29T10:57:56;3.80;;;1.75;;
65599;SDS011;52272;-29.642;-50.764;2022-12-29T11:00:37;4.82;;;1.80;;
65599;SDS011;52272;-29.642;-50.764;2022-12-29T11:03:41;2.45;;;1.77;;
65599;SDS011;52272;-29.642;-50.764;2022-12-29T11:06:52;3.10;;;1.65;;
65599;SDS011;52272;-29.642;-50.764;2022-12-29T11:09:25;3.15;;;1.60;;
65599;SDS011;52272;-29.642;-50.764;2022-12-29T11:12:19;4.05;;;1.65;;
65599;SDS011;52272;-29.642;-50.764;2022-12-29T11:15:02;2.47;;;1.25;;
65599;SDS011;52272;-29.642;-50.764;2022-12-29T11:17:45;4.57;;;1.40;;
65599;SDS011;52272;-29.642;-50.764;2022-12-29T11:23:02;3.65;;;1.40;;
65599;SDS011;52272;-29.642;-50.764;2022-12-29T11:35:01;4.07;;;1.60;;
65599;SDS011;52272;-29.642;-50.764;2022-12-29T11:37:45;5.43;;;1.90;;
65599;SDS011;52272;-29.642;-50.764;2022-12-29T11:40:28;4.00;;;1.50;;
65599;SDS011;52272;-29.642;-50.764;2022-12-29T11:43:17;6.50;;;1.70;;
65599;SDS011;52272;-29.642;-50.764;2022-12-29T11:46:16;3.22;;;1.65;;
65599;SDS011;52272;-29.642;-50.764;2022-12-29T11:48:58;2.47;;;1.45;;
65599;SDS011;52272;-29.642;-50.764;2022-12-29T11:54:33;4.00;;;1.77;;
65599;SDS011;52272;-29.642;-50.764;2022-12-29T11:57:15;5.15;;;2.13;;
65599;SDS011;52272;-29.642;-50.764;2022-12-29T11:59:50;5.05;;;2.05;;
65599;SDS011;52272;-29.642;-50.764;2022-12-29T12:08:14;4.13;;;1.90;;
65599;SDS011;52272;-29.642;-50.764;2022-12-29T12:11:04;3.65;;;1.90;;
65599;SDS011;52272;-29.642;-50.764;2022-12-29T12:14:04;3.72;;;1.98;;
65599;SDS011;52272;-29.642;-50.764;2022-12-29T12:17:14;5.45;;;1.90;;
65599;SDS011;52272;-29.642;-50.764;2022-12-29T12:20:18;4.07;;;1.90;;
65599;SDS011;52272;-29.642;-50.764;2022-12-29T12:23:12;3.70;;;1.77;;
65599;SDS011;52272;-29.642;-50.764;2022-12-29T12:26:12;1.88;;;1.50;;
65599;SDS011;52272;-29.642;-50.764;2022-12-29T12:29:16;2.67;;;1.70;;
65599;SDS011;52272;-29.642;-50.764;2022-12-29T12:32:04;7.43;;;1.90;;
65599;SDS011;52272;-29.642;-50.764;2022-12-29T12:34:43;3.55;;;1.70;;
65599;SDS011;52272;-29.642;-50.764;2022-12-29T12:52:30;5.00;;;1.80;;
65599;SDS011;52272;-29.642;-50.764;2022-12-29T13:01:23;2.85;;;1.90;;
65599;SDS011;52272;-29.642;-50.764;2022-12-29T13:07:38;4.47;;;2.10;;
65599;SDS011;52272;-29.642;-50.764;2022-12-29T13:10:20;3.28;;;1.80;;
65599;SDS011;52272;-29.642;-50.764;2022-12-29T13:22:51;3.08;;;2.15;;
65599;SDS011;52272;-29.642;-50.764;2022-12-29T13:33:55;3.20;;;2.00;;
65599;SDS011;52272;-29.642;-50.764;2022-12-29T13:36:52;4.40;;;2.13;;
65599;SDS011;52272;-29.642;-50.764;2022-12-29T13:39:27;2.80;;;1.70;;
65599;SDS011;52272;-29.642;-50.764;2022-12-29T13:42:09;4.80;;;1.67;;
65599;SDS011;52272;-29.642;-50.764;2022-12-29T13:44:51;3.95;;;1.60;;
65599;SDS011;52272;-29.642;-50.764;2022-12-29T13:47:39;2.75;;;1.58;;
65599;SDS011;52272;-29.642;-50.764;2022-12-29T13:50:28;4.45;;;1.83;;
65599;SDS011;52272;-29.642;-50.764;2022-12-29T13:56:16;3.90;;;1.42;;
65599;SDS011;52272;-29.642;-50.764;2022-12-29T13:58:54;2.90;;;1.58;;
65599;SDS011;52272;-29.642;-50.764;2022-12-29T14:01:35;2.40;;;1.75;;
65599;SDS011;52272;-29.642;-50.764;2022-12-29T14:04:28;3.10;;;1.73;;
65599;SDS011;52272;-29.642;-50.764;2022-12-29T14:07:03;3.28;;;1.40;;
65599;SDS011;52272;-29.642;-50.764;2022-12-29T14:09:53;2.60;;;1.20;;
65599;SDS011;52272;-29.642;-50.764;2022-12-29T14:12:40;3.08;;;1.75;;
65599;SDS011;52272;-29.642;-50.764;2022-12-29T14:15:22;3.88;;;1.65;;
65599;SDS011;52272;-29.642;-50.764;2022-12-29T14:18:04;2.97;;;1.55;;
65599;SDS011;52272;-29.642;-50.764;2022-12-29T14:26:32;2.08;;;1.45;;
65599;SDS011;52272;-29.642;-50.764;2022-12-29T14:29:16;2.47;;;1.52;;
65599;SDS011;52272;-29.642;-50.764;2022-12-29T14:35:36;4.10;;;1.50;;
65599;SDS011;52272;-29.642;-50.764;2022-12-29T14:38:32;3.58;;;1.58;;
65599;SDS011;52272;-29.642;-50.764;2022-12-29T14:43:58;2.72;;;1.23;;
65599;SDS011;52272;-29.642;-50.764;2022-12-29T14:49:54;2.88;;;1.48;;
65599;SDS011;52272;-29.642;-50.764;2022-12-29T14:52:25;5.07;;;1.33;;
65599;SDS011;52272;-29.642;-50.764;2022-12-29T14:55:00;4.05;;;1.30;;
65599;SDS011;52272;-29.642;-50.764;2022-12-29T15:00:50;2.58;;;1.40;;
65599;SDS011;52272;-29.642;-50.764;2022-12-29T15:03:38;5.05;;;1.30;;
65599;SDS011;52272;-29.642;-50.764;2022-12-29T15:06:29;3.45;;;1.55;;
65599;SDS011;52272;-29.642;-50.764;2022-12-29T15:09:47;5.13;;;2.00;;
65599;SDS011;52272;-29.642;-50.764;2022-12-29T15:12:01;3.00;;;1.30;;
65599;SDS011;52272;-29.642;-50.764;2022-12-29T15:14:55;3.45;;;1.63;;
65599;SDS011;52272;-29.642;-50.764;2022-12-29T15:17:36;2.53;;;1.63;;
65599;SDS011;52272;-29.642;-50.764;2022-12-29T15:25:47;2.55;;;1.35;;
65599;SDS011;52272;-29.642;-50.764;2022-12-29T15:28:41;2.35;;;1.27;;
65599;SDS011;52272;-29.642;-50.764;2022-12-29T15:34:02;3.00;;;1.27;;
65599;SDS011;52272;-29.642;-50.764;2022-12-29T15:36:40;4.18;;;1.45;;
65599;SDS011;52272;-29.642;-50.764;2022-12-29T15:39:27;3.53;;;1.38;;
65599;SDS011;52272;-29.642;-50.764;2022-12-29T15:45:14;2.80;;;1.30;;
65599;SDS011;52272;-29.642;-50.764;2022-12-29T15:47:55;3.13;;;1.17;;
65599;SDS011;52272;-29.642;-50.764;2022-12-29T15:50:32;2.17;;;1.33;;
65599;SDS011;52272;-29.642;-50.764;2022-12-29T15:53:10;4.18;;;1.33;;
65599;SDS011;52272;-29.642;-50.764;2022-12-29T15:56:11;2.28;;;0.68;;
65599;SDS011;52272;-29.642;-50.764;2022-12-29T15:58:44;1.45;;;1.17;;
65599;SDS011;52272;-29.642;-50.764;2022-12-29T16:01:30;2.30;;;0.88;;
65599;SDS011;52272;-29.642;-50.764;2022-12-29T16:04:10;4.72;;;1.35;;
65599;SDS011;52272;-29.642;-50.764;2022-12-29T16:10:52;1.42;;;1.08;;
65599;SDS011;52272;-29.642;-50.764;2022-12-29T16:13:04;2.78;;;0.80;;
65599;SDS011;52272;-29.642;-50.764;2022-12-29T16:16:00;1.88;;;1.05;;
65599;SDS011;52272;-29.642;-50.764;2022-12-29T16:18:40;1.63;;;1.10;;
65599;SDS011;52272;-29.642;-50.764;2022-12-29T16:21:20;7.30;;;1.38;;
65599;SDS011;52272;-29.642;-50.764;2022-12-29T16:24:26;2.63;;;1.20;;
65599;SDS011;52272;-29.642;-50.764;2022-12-29T16:30:22;2.20;;;0.93;;
65599;SDS011;52272;-29.642;-50.764;2022-12-29T16:33:28;2.20;;;1.00;;
65599;SDS011;52272;-29.642;-50.764;2022-12-29T16:36:25;1.30;;;0.98;;
65599;SDS011;52272;-29.642;-50.764;2022-12-29T16:39:10;2.45;;;1.08;;
65599;SDS011;52272;-29.642;-50.764;2022-12-29T16:41:49;1.27;;;1.00;;
65599;SDS011;52272;-29.642;-50.764;2022-12-29T16:44:26;3.97;;;0.90;;
65599;SDS011;52272;-29.642;-50.764;2022-12-29T16:50:10;1.30;;;1.08;;
65599;SDS011;52272;-29.642;-50.764;2022-12-29T16:52:53;2.60;;;1.17;;
65599;SDS011;52272;-29.642;-50.764;2022-12-29T16:55:26;4.40;;;1.20;;
65599;SDS011;52272;-29.642;-50.764;2022-12-29T16:58:02;2.30;;;1.10;;
65599;SDS011;52272;-29.642;-50.764;2022-12-29T17:00:39;4.30;;;1.40;;
65599;SDS011;52272;-29.642;-50.764;2022-12-29T17:03:12;1.33;;;1.15;;
65599;SDS011;52272;-29.642;-50.764;2022-12-29T17:05:43;1.85;;;1.10;;
65599;SDS011;52272;-29.642;-50.764;2022-12-29T17:08:16;1.80;;;1.10;;
65599;SDS011;52272;-29.642;-50.764;2022-12-29T17:11:00;2.53;;;1.30;;
65599;SDS011;52272;-29.642;-50.764;2022-12-29T17:13:57;3.10;;;1.17;;
65599;SDS011;52272;-29.642;-50.764;2022-12-29T17:16:35;2.10;;;0.85;;
65599;SDS011;52272;-29.642;-50.764;2022-12-29T17:19:07;2.53;;;1.15;;
65599;SDS011;52272;-29.642;-50.764;2022-12-29T17:21:45;4.55;;;1.30;;
65599;SDS011;52272;-29.642;-50.764;2022-12-29T17:24:22;2.22;;;1.02;;
65599;SDS011;52272;-29.642;-50.764;2022-12-29T17:26:56;3.28;;;1.27;;
65599;SDS011;52272;-29.642;-50.764;2022-12-29T17:29:38;6.40;;;1.27;;
65599;SDS011;52272;-29.642;-50.764;2022-12-29T17:32:15;3.28;;;1.23;;
65599;SDS011;52272;-29.642;-50.764;2022-12-29T17:34:50;5.35;;;1.23;;
65599;SDS011;52272;-29.642;-50.764;2022-12-29T17:40:09;2.65;;;1.30;;
65599;SDS011;52272;-29.642;-50.764;2022-12-29T17:42:47;2.08;;;1.00;;
65599;SDS011;52272;-29.642;-50.764;2022-12-29T17:45:23;4.72;;;1.50;;
65599;SDS011;52272;-29.642;-50.764;2022-12-29T17:47:58;3.65;;;1.00;;
65599;SDS011;52272;-29.642;-50.764;2022-12-29T17:50:35;4.75;;;1.17;;
65599;SDS011;52272;-29.642;-50.764;2022-12-29T17:53:19;3.55;;;1.30;;
65599;SDS011;52272;-29.642;-50.764;2022-12-29T17:56:05;3.22;;;1.20;;
65599;SDS011;52272;-29.642;-50.764;2022-12-29T17:58:35;5.45;;;1.15;;
65599;SDS011;52272;-29.642;-50.764;2022-12-29T18:01:19;2.75;;;1.17;;
65599;SDS011;52272;-29.642;-50.764;2022-12-29T18:03:59;4.05;;;1.15;;
65599;SDS011;52272;-29.642;-50.764;2022-12-29T18:06:36;2.72;;;1.23;;
65599;SDS011;52272;-29.642;-50.764;2022-12-29T18:09:19;3.70;;;1.17;;
65599;SDS011;52272;-29.642;-50.764;2022-12-29T18:11:55;3.17;;;1.42;;
65599;SDS011;52272;-29.642;-50.764;2022-12-29T18:14:34;4.07;;;1.15;;
65599;SDS011;52272;-29.642;-50.764;2022-12-29T18:17:11;3.13;;;1.08;;
65599;SDS011;52272;-29.642;-50.764;2022-12-29T18:20:18;3.95;;;1.38;;
65599;SDS011;52272;-29.642;-50.764;2022-12-29T18:22:51;4.93;;;1.25;;
65599;SDS011;52272;-29.642;-50.764;2022-12-29T18:25:55;3.00;;;1.15;;
65599;SDS011;52272;-29.642;-50.764;2022-12-29T18:28:39;2.97;;;1.10;;
65599;SDS011;52272;-29.642;-50.764;2022-12-29T18:31:24;1.98;;;1.17;;
65599;SDS011;52272;-29.642;-50.764;2022-12-29T18:34:18;2.58;;;1.20;;